createdAt,value
2023-03-23T15:58:47.873Z,4.22
2023-03-23T16:01:18.914Z,4.03
2023-03-23T16:03:51.609Z,4.50
2023-03-23T16:06:23.682Z,3.90
2023-03-23T16:08:53.915Z,4.50
2023-03-23T16:11:23.664Z,3.67
2023-03-23T16:13:51.123Z,3.85
2023-03-23T16:16:50.666Z,3.95
2023-03-23T16:19:20.302Z,3.83
2023-03-23T16:21:47.233Z,4.50
2023-03-23T16:24:14.218Z,3.95
2023-03-23T16:26:41.137Z,4.53
2023-03-23T16:29:20.455Z,4.32
2023-03-23T16:31:55.925Z,4.18
2023-03-23T16:34:22.959Z,3.97
2023-03-23T16:36:49.890Z,4.40
2023-03-23T16:39:19.022Z,4.50
2023-03-23T16:41:46.125Z,3.92
2023-03-23T16:44:13.069Z,4.38
2023-03-23T16:46:40.048Z,3.90
2023-03-23T16:49:06.984Z,4.03
2023-03-23T16:51:34.235Z,4.70
2023-03-23T16:54:01.259Z,3.97
2023-03-23T16:56:28.184Z,3.65
2023-03-23T16:58:55.004Z,5.15
2023-03-23T17:01:22.080Z,4.18
2023-03-23T17:03:49.006Z,3.90
2023-03-23T17:06:16.175Z,3.67
2023-03-23T17:08:43.169Z,3.75
2023-03-23T17:11:11.254Z,3.90
2023-03-23T17:13:38.359Z,3.22
2023-03-23T17:16:05.759Z,3.35
2023-03-23T17:18:32.590Z,3.90
2023-03-23T17:20:59.518Z,3.67
2023-03-23T17:23:26.859Z,3.20
2023-03-23T17:25:54.104Z,3.40
2023-03-23T17:28:21.202Z,3.08
2023-03-23T17:30:48.898Z,3.60
2023-03-23T17:33:15.712Z,3.85
2023-03-23T17:35:43.355Z,3.47
2023-03-23T17:38:10.700Z,3.47
2023-03-23T17:40:37.850Z,4.00
2023-03-23T17:43:05.069Z,4.38
2023-03-23T17:45:32.235Z,3.90
2023-03-23T17:47:59.096Z,3.75
2023-03-23T17:50:26.722Z,5.00
2023-03-23T17:52:53.708Z,4.72
2023-03-23T17:55:20.707Z,4.10
2023-03-23T17:57:47.581Z,4.38
2023-03-23T18:00:15.358Z,3.88
2023-03-23T18:02:42.370Z,5.25
2023-03-23T18:05:10.736Z,4.07
2023-03-23T18:07:37.715Z,4.65
2023-03-23T18:10:11.978Z,4.45
2023-03-23T18:12:41.571Z,4.88
2023-03-23T18:15:09.814Z,4.60
2023-03-23T18:17:36.966Z,5.60
2023-03-23T18:20:06.011Z,5.65
2023-03-23T18:22:32.949Z,5.45
2023-03-23T18:24:59.780Z,5.32
2023-03-23T18:27:27.176Z,5.18
2023-03-23T18:29:54.053Z,6.28
2023-03-23T18:32:21.217Z,5.82
2023-03-23T18:34:48.653Z,5.50
2023-03-23T18:37:15.716Z,5.00
2023-03-23T18:39:42.598Z,5.35
2023-03-23T18:42:09.512Z,6.45
2023-03-23T18:44:36.497Z,5.97
2023-03-23T18:47:03.968Z,5.50
2023-03-23T18:49:33.390Z,6.45
2023-03-23T18:52:01.002Z,6.03
2023-03-23T18:54:28.601Z,5.75
2023-03-23T18:56:55.928Z,5.75
2023-03-23T18:59:30.376Z,5.82
2023-03-23T19:01:58.312Z,5.70
2023-03-23T19:04:25.624Z,5.38
2023-03-23T19:06:52.518Z,5.43
2023-03-23T19:09:19.355Z,6.00
2023-03-23T19:11:47.218Z,5.95
2023-03-23T19:14:14.419Z,5.80
2023-03-23T19:16:42.024Z,5.85
2023-03-23T19:19:09.458Z,6.22
2023-03-23T19:21:37.668Z,6.55
2023-03-23T19:24:05.428Z,6.43
2023-03-23T19:26:38.417Z,6.55
2023-03-23T19:29:25.997Z,7.20
2023-03-23T19:31:57.743Z,5.72
2023-03-23T19:34:26.801Z,6.63
2023-03-23T19:36:59.632Z,5.72
2023-03-23T19:39:33.096Z,5.53
2023-03-23T19:42:00.303Z,6.03
2023-03-23T19:44:28.563Z,5.72
2023-03-23T19:46:56.331Z,5.90
2023-03-23T19:49:24.600Z,6.93
2023-03-23T19:51:52.699Z,6.57
2023-03-23T19:54:36.578Z,5.97
2023-03-23T19:57:03.709Z,6.88
2023-03-23T19:59:30.845Z,6.38
2023-03-23T20:01:57.798Z,6.45
2023-03-23T20:04:25.699Z,5.40
2023-03-23T20:06:52.760Z,5.97
2023-03-23T20:09:19.860Z,6.28
2023-03-23T20:11:46.729Z,5.40
2023-03-23T20:14:13.884Z,6.03
2023-03-23T20:16:40.718Z,6.38
2023-03-23T20:19:08.731Z,5.43
2023-03-23T20:21:35.949Z,5.32
2023-03-23T20:24:02.881Z,6.00
2023-03-23T20:29:09.471Z,5.50
2023-03-23T20:31:39.136Z,5.22
2023-03-23T20:34:12.952Z,5.90
2023-03-23T20:36:42.665Z,5.15
2023-03-23T20:39:18.663Z,6.00
2023-03-23T20:41:47.527Z,5.47
2023-03-23T20:44:15.581Z,5.78
2023-03-23T20:46:48.181Z,4.88
2023-03-23T20:49:17.672Z,5.20
2023-03-23T20:51:46.434Z,5.60
2023-03-23T20:54:15.737Z,5.32
2023-03-23T20:56:46.974Z,5.32
2023-03-23T20:59:14.525Z,4.85
2023-03-23T21:01:41.659Z,5.60
2023-03-23T21:04:15.599Z,5.28
2023-03-23T21:06:44.004Z,4.82
2023-03-23T21:09:11.782Z,5.13
2023-03-23T21:11:39.178Z,5.38
2023-03-23T21:14:06.224Z,5.07
2023-03-23T21:16:33.247Z,5.20
2023-03-23T21:19:00.608Z,4.55
2023-03-23T21:21:28.362Z,4.60
2023-03-23T21:23:57.321Z,5.40
2023-03-23T21:26:27.814Z,5.30
2023-03-23T21:29:00.351Z,5.22
2023-03-23T21:31:30.707Z,5.10
2023-03-23T21:33:59.160Z,5.20
2023-03-23T21:36:29.361Z,4.40
2023-03-23T21:38:57.121Z,5.18
2023-03-23T21:41:25.009Z,4.85
2023-03-23T21:43:51.918Z,5.07
2023-03-23T21:46:19.224Z,4.95
2023-03-23T21:48:51.733Z,4.88
2023-03-23T21:51:29.900Z,4.63
2023-03-23T21:53:57.565Z,4.82
2023-03-23T21:56:27.339Z,4.45
2023-03-23T21:58:55.522Z,4.20
2023-03-23T22:01:22.768Z,4.00
2023-03-23T22:03:50.683Z,3.65
2023-03-23T22:06:26.357Z,4.22
2023-03-23T22:08:54.155Z,3.25
2023-03-23T22:11:28.229Z,4.45
2023-03-23T22:13:57.583Z,3.63
2023-03-23T22:16:25.597Z,4.78
2023-03-23T22:18:54.150Z,4.03
2023-03-23T22:21:22.495Z,4.07
2023-03-23T22:23:49.678Z,3.83
2023-03-23T22:26:17.252Z,4.28
2023-03-23T22:28:46.364Z,4.60
2023-03-23T22:31:19.975Z,4.43
2023-03-23T22:33:48.491Z,4.35
2023-03-23T22:36:17.193Z,4.80
2023-03-23T22:38:47.166Z,4.82
2023-03-23T22:41:23.410Z,4.20
2023-03-23T22:43:50.864Z,4.05
2023-03-23T22:46:18.149Z,3.90
2023-03-23T22:48:46.263Z,4.10
2023-03-23T22:51:15.722Z,4.57
2023-03-23T22:53:42.869Z,4.78
2023-03-23T22:56:10.502Z,4.43
2023-03-23T22:58:38.165Z,3.78
2023-03-23T23:01:08.921Z,4.78
2023-03-23T23:03:36.955Z,4.55
2023-03-23T23:06:04.370Z,4.35
2023-03-23T23:08:32.891Z,4.05
2023-03-23T23:11:01.911Z,4.68
2023-03-23T23:13:31.235Z,4.53
2023-03-23T23:16:02.058Z,4.18
2023-03-23T23:18:30.993Z,4.13
2023-03-23T23:21:00.020Z,4.07
2023-03-23T23:23:28.399Z,3.95
2023-03-23T23:25:55.609Z,4.20
2023-03-23T23:28:23.022Z,3.95
2023-03-23T23:30:51.448Z,3.65
2023-03-23T23:33:18.995Z,3.95
2023-03-23T23:35:46.270Z,3.83
2023-03-23T23:38:13.714Z,3.45
2023-03-23T23:40:41.647Z,3.97
2023-03-23T23:43:11.083Z,4.03
2023-03-23T23:45:38.908Z,3.90
2023-03-23T23:48:06.268Z,4.20
2023-03-23T23:50:34.134Z,4.13
2023-03-23T23:53:01.343Z,3.80
2023-03-23T23:55:28.973Z,3.65
2023-03-23T23:57:56.150Z,4.30
